sensor_id;sensor_type;location;lat;lon;timestamp;P1;durP1;ratioP1;P2;durP2;ratioP2
7049;SDS011;22263;52.260;10.548;2024-02-16T00:02:08;0.40;;;0.40;;
7049;SDS011;22263;52.260;10.548;2024-02-16T00:04:41;0.30;;;0.30;;
7049;SDS011;22263;52.260;10.548;2024-02-16T00:07:12;0.40;;;0.40;;
7049;SDS011;22263;52.260;10.548;2024-02-16T00:09:42;0.40;;;0.40;;
7049;SDS011;22263;52.260;10.548;2024-02-16T00:12:13;0.30;;;0.30;;
7049;SDS011;22263;52.260;10.548;2024-02-16T00:14:43;0.40;;;0.40;;
7049;SDS011;22263;52.260;10.548;2024-02-16T00:17:13;0.40;;;0.40;;
7049;SDS011;22263;52.260;10.548;2024-02-16T00:19:47;0.40;;;0.40;;
7049;SDS011;22263;52.260;10.548;2024-02-16T00:22:17;0.40;;;0.40;;
7049;SDS011;22263;52.260;10.548;2024-02-16T00:24:47;0.40;;;0.40;;
7049;SDS011;22263;52.260;10.548;2024-02-16T00:27:17;0.38;;;0.38;;
7049;SDS011;22263;52.260;10.548;2024-02-16T00:29:48;0.40;;;0.40;;
7049;SDS011;22263;52.260;10.548;2024-02-16T00:32:18;0.40;;;0.40;;
7049;SDS011;22263;52.260;10.548;2024-02-16T00:34:53;0.30;;;0.30;;
7049;SDS011;22263;52.260;10.548;2024-02-16T00:37:23;0.38;;;0.38;;
7049;SDS011;22263;52.260;10.548;2024-02-16T00:39:54;0.30;;;0.30;;
7049;SDS011;22263;52.260;10.548;2024-02-16T00:42:24;0.38;;;0.38;;
7049;SDS011;22263;52.260;10.548;2024-02-16T00:44:55;0.30;;;0.30;;
7049;SDS011;22263;52.260;10.548;2024-02-16T00:47:27;0.40;;;0.40;;
7049;SDS011;22263;52.260;10.548;2024-02-16T00:50:00;0.40;;;0.40;;
7049;SDS011;22263;52.260;10.548;2024-02-16T00:52:32;0.40;;;0.40;;
7049;SDS011;22263;52.260;10.548;2024-02-16T00:55:02;0.40;;;0.40;;
7049;SDS011;22263;52.260;10.548;2024-02-16T00:57:33;0.30;;;0.30;;
7049;SDS011;22263;52.260;10.548;2024-02-16T01:00:03;0.40;;;0.40;;
7049;SDS011;22263;52.260;10.548;2024-02-16T01:02:36;0.30;;;0.30;;
7049;SDS011;22263;52.260;10.548;2024-02-16T01:05:08;0.40;;;0.40;;
7049;SDS011;22263;52.260;10.548;2024-02-16T01:07:39;0.40;;;0.40;;
7049;SDS011;22263;52.260;10.548;2024-02-16T01:10:09;0.40;;;0.40;;
7049;SDS011;22263;52.260;10.548;2024-02-16T01:12:39;0.40;;;0.40;;
7049;SDS011;22263;52.260;10.548;2024-02-16T01:15:09;0.40;;;0.40;;
7049;SDS011;22263;52.260;10.548;2024-02-16T01:17:39;0.40;;;0.40;;
7049;SDS011;22263;52.260;10.548;2024-02-16T01:20:12;0.30;;;0.30;;
7049;SDS011;22263;52.260;10.548;2024-02-16T01:22:42;0.40;;;0.40;;
7049;SDS011;22263;52.260;10.548;2024-02-16T01:25:12;0.40;;;0.40;;
7049;SDS011;22263;52.260;10.548;2024-02-16T01:27:43;0.30;;;0.30;;
7049;SDS011;22263;52.260;10.548;2024-02-16T01:30:12;0.30;;;0.30;;
7049;SDS011;22263;52.260;10.548;2024-02-16T01:32:45;0.40;;;0.40;;
7049;SDS011;22263;52.260;10.548;2024-02-16T01:35:18;0.30;;;0.30;;
7049;SDS011;22263;52.260;10.548;2024-02-16T01:37:48;0.40;;;0.40;;
7049;SDS011;22263;52.260;10.548;2024-02-16T01:40:18;0.40;;;0.40;;
7049;SDS011;22263;52.260;10.548;2024-02-16T01:42:49;0.40;;;0.40;;
7049;SDS011;22263;52.260;10.548;2024-02-16T01:45:19;0.40;;;0.40;;
7049;SDS011;22263;52.260;10.548;2024-02-16T01:47:51;0.40;;;0.40;;
7049;SDS011;22263;52.260;10.548;2024-02-16T01:50:26;0.40;;;0.40;;
7049;SDS011;22263;52.260;10.548;2024-02-16T01:52:59;0.35;;;0.35;;
7049;SDS011;22263;52.260;10.548;2024-02-16T01:55:29;0.40;;;0.40;;
7049;SDS011;22263;52.260;10.548;2024-02-16T01:57:59;0.40;;;0.40;;
7049;SDS011;22263;52.260;10.548;2024-02-16T02:00:30;0.40;;;0.40;;
7049;SDS011;22263;52.260;10.548;2024-02-16T02:03:00;0.30;;;0.30;;
7049;SDS011;22263;52.260;10.548;2024-02-16T02:05:33;0.40;;;0.40;;
7049;SDS011;22263;52.260;10.548;2024-02-16T02:08:08;0.30;;;0.30;;
7049;SDS011;22263;52.260;10.548;2024-02-16T02:10:39;0.40;;;0.40;;
7049;SDS011;22263;52.260;10.548;2024-02-16T02:13:09;0.40;;;0.40;;
7049;SDS011;22263;52.260;10.548;2024-02-16T02:15:39;0.30;;;0.30;;
7049;SDS011;22263;52.260;10.548;2024-02-16T02:18:09;0.40;;;0.40;;
7049;SDS011;22263;52.260;10.548;2024-02-16T02:20:43;0.40;;;0.40;;
7049;SDS011;22263;52.260;10.548;2024-02-16T02:23:16;0.40;;;0.40;;
7049;SDS011;22263;52.260;10.548;2024-02-16T02:25:46;0.40;;;0.40;;
7049;SDS011;22263;52.260;10.548;2024-02-16T02:28:17;0.30;;;0.30;;
7049;SDS011;22263;52.260;10.548;2024-02-16T02:30:50;0.40;;;0.40;;
7049;SDS011;22263;52.260;10.548;2024-02-16T02:33:20;0.40;;;0.40;;
7049;SDS011;22263;52.260;10.548;2024-02-16T02:35:50;0.40;;;0.40;;
7049;SDS011;22263;52.260;10.548;2024-02-16T02:38:23;0.40;;;0.40;;
7049;SDS011;22263;52.260;10.548;2024-02-16T02:40:53;0.40;;;0.40;;
7049;SDS011;22263;52.260;10.548;2024-02-16T02:43:23;0.38;;;0.38;;
7049;SDS011;22263;52.260;10.548;2024-02-16T02:45:54;0.40;;;0.40;;
7049;SDS011;22263;52.260;10.548;2024-02-16T02:48:23;0.40;;;0.40;;
7049;SDS011;22263;52.260;10.548;2024-02-16T02:50:54;0.40;;;0.40;;
7049;SDS011;22263;52.260;10.548;2024-02-16T02:53:29;0.40;;;0.40;;
7049;SDS011;22263;52.260;10.548;2024-02-16T02:55:59;0.40;;;0.40;;
7049;SDS011;22263;52.260;10.548;2024-02-16T02:58:29;0.40;;;0.40;;
7049;SDS011;22263;52.260;10.548;2024-02-16T03:01:00;0.40;;;0.40;;
7049;SDS011;22263;52.260;10.548;2024-02-16T03:03:30;0.40;;;0.40;;
7049;SDS011;22263;52.260;10.548;2024-02-16T03:06:00;0.40;;;0.40;;
7049;SDS011;22263;52.260;10.548;2024-02-16T03:08:33;0.40;;;0.40;;
7049;SDS011;22263;52.260;10.548;2024-02-16T03:11:04;0.40;;;0.40;;
7049;SDS011;22263;52.260;10.548;2024-02-16T03:13:34;0.40;;;0.40;;
7049;SDS011;22263;52.260;10.548;2024-02-16T03:16:04;0.40;;;0.40;;
7049;SDS011;22263;52.260;10.548;2024-02-16T03:18:35;0.40;;;0.40;;
7049;SDS011;22263;52.260;10.548;2024-02-16T03:21:06;0.40;;;0.40;;
7049;SDS011;22263;52.260;10.548;2024-02-16T03:23:39;0.40;;;0.40;;
7049;SDS011;22263;52.260;10.548;2024-02-16T03:26:15;0.30;;;0.30;;
7049;SDS011;22263;52.260;10.548;2024-02-16T03:28:46;0.40;;;0.40;;
7049;SDS011;22263;52.260;10.548;2024-02-16T03:31:17;0.40;;;0.40;;
7049;SDS011;22263;52.260;10.548;2024-02-16T03:33:47;0.40;;;0.40;;
7049;SDS011;22263;52.260;10.548;2024-02-16T03:36:18;0.40;;;0.40;;
7049;SDS011;22263;52.260;10.548;2024-02-16T03:38:52;0.40;;;0.40;;
7049;SDS011;22263;52.260;10.548;2024-02-16T03:41:23;0.50;;;0.50;;
7049;SDS011;22263;52.260;10.548;2024-02-16T03:43:53;0.40;;;0.40;;
7049;SDS011;22263;52.260;10.548;2024-02-16T03:46:24;0.40;;;0.40;;
7049;SDS011;22263;52.260;10.548;2024-02-16T03:48:54;0.40;;;0.40;;
7049;SDS011;22263;52.260;10.548;2024-02-16T03:51:24;0.40;;;0.40;;
7049;SDS011;22263;52.260;10.548;2024-02-16T03:53:57;0.40;;;0.40;;
7049;SDS011;22263;52.260;10.548;2024-02-16T03:56:27;0.40;;;0.40;;
7049;SDS011;22263;52.260;10.548;2024-02-16T03:58:57;0.40;;;0.40;;
7049;SDS011;22263;52.260;10.548;2024-02-16T04:01:27;0.50;;;0.50;;
7049;SDS011;22263;52.260;10.548;2024-02-16T04:03:57;0.45;;;0.45;;
7049;SDS011;22263;52.260;10.548;2024-02-16T04:06:27;0.32;;;0.32;;
7049;SDS011;22263;52.260;10.548;2024-02-16T04:09:00;0.40;;;0.40;;
7049;SDS011;22263;52.260;10.548;2024-02-16T04:11:31;0.50;;;0.50;;
7049;SDS011;22263;52.260;10.548;2024-02-16T04:14:02;0.40;;;0.40;;
7049;SDS011;22263;52.260;10.548;2024-02-16T04:16:32;0.40;;;0.40;;
7049;SDS011;22263;52.260;10.548;2024-02-16T04:19:02;0.30;;;0.30;;
7049;SDS011;22263;52.260;10.548;2024-02-16T04:21:32;0.50;;;0.50;;
7049;SDS011;22263;52.260;10.548;2024-02-16T04:24:05;0.40;;;0.40;;
7049;SDS011;22263;52.260;10.548;2024-02-16T04:26:36;0.40;;;0.40;;
7049;SDS011;22263;52.260;10.548;2024-02-16T04:29:05;0.40;;;0.40;;
7049;SDS011;22263;52.260;10.548;2024-02-16T04:31:35;0.50;;;0.50;;
7049;SDS011;22263;52.260;10.548;2024-02-16T04:34:09;0.40;;;0.40;;
7049;SDS011;22263;52.260;10.548;2024-02-16T04:36:39;0.40;;;0.40;;
7049;SDS011;22263;52.260;10.548;2024-02-16T04:39:13;0.40;;;0.40;;
7049;SDS011;22263;52.260;10.548;2024-02-16T04:41:44;0.40;;;0.40;;
7049;SDS011;22263;52.260;10.548;2024-02-16T04:44:14;0.40;;;0.40;;
7049;SDS011;22263;52.260;10.548;2024-02-16T04:46:44;0.40;;;0.40;;
7049;SDS011;22263;52.260;10.548;2024-02-16T04:49:14;0.50;;;0.50;;
7049;SDS011;22263;52.260;10.548;2024-02-16T04:51:45;0.40;;;0.40;;
7049;SDS011;22263;52.260;10.548;2024-02-16T04:54:17;0.40;;;0.40;;
7049;SDS011;22263;52.260;10.548;2024-02-16T04:56:48;0.40;;;0.40;;
7049;SDS011;22263;52.260;10.548;2024-02-16T04:59:18;0.40;;;0.40;;
7049;SDS011;22263;52.260;10.548;2024-02-16T05:01:47;0.40;;;0.40;;
7049;SDS011;22263;52.260;10.548;2024-02-16T05:04:17;0.40;;;0.40;;
7049;SDS011;22263;52.260;10.548;2024-02-16T05:06:48;0.40;;;0.40;;
7049;SDS011;22263;52.260;10.548;2024-02-16T05:09:22;0.40;;;0.40;;
7049;SDS011;22263;52.260;10.548;2024-02-16T05:11:53;0.40;;;0.40;;
7049;SDS011;22263;52.260;10.548;2024-02-16T05:14:23;0.30;;;0.30;;
7049;SDS011;22263;52.260;10.548;2024-02-16T05:16:53;0.40;;;0.40;;
7049;SDS011;22263;52.260;10.548;2024-02-16T05:19:25;0.40;;;0.40;;
7049;SDS011;22263;52.260;10.548;2024-02-16T05:21:55;0.40;;;0.40;;
7049;SDS011;22263;52.260;10.548;2024-02-16T05:24:28;0.32;;;0.32;;
7049;SDS011;22263;52.260;10.548;2024-02-16T05:26:58;0.40;;;0.40;;
7049;SDS011;22263;52.260;10.548;2024-02-16T05:29:28;0.32;;;0.32;;
7049;SDS011;22263;52.260;10.548;2024-02-16T05:31:58;0.40;;;0.40;;
7049;SDS011;22263;52.260;10.548;2024-02-16T05:34:28;0.35;;;0.35;;
7049;SDS011;22263;52.260;10.548;2024-02-16T05:37:04;0.40;;;0.40;;
7049;SDS011;22263;52.260;10.548;2024-02-16T05:39:38;0.40;;;0.40;;
7049;SDS011;22263;52.260;10.548;2024-02-16T05:42:21;0.40;;;0.40;;
7049;SDS011;22263;52.260;10.548;2024-02-16T05:44:52;0.40;;;0.40;;
7049;SDS011;22263;52.260;10.548;2024-02-16T05:47:21;0.40;;;0.40;;
7049;SDS011;22263;52.260;10.548;2024-02-16T05:49:51;0.40;;;0.40;;
7049;SDS011;22263;52.260;10.548;2024-02-16T05:52:21;0.40;;;0.40;;
7049;SDS011;22263;52.260;10.548;2024-02-16T05:54:54;0.40;;;0.40;;
7049;SDS011;22263;52.260;10.548;2024-02-16T05:57:25;0.40;;;0.40;;
7049;SDS011;22263;52.260;10.548;2024-02-16T05:59:55;0.40;;;0.40;;
7049;SDS011;22263;52.260;10.548;2024-02-16T06:02:26;0.40;;;0.40;;
7049;SDS011;22263;52.260;10.548;2024-02-16T06:04:57;0.40;;;0.40;;
7049;SDS011;22263;52.260;10.548;2024-02-16T06:07:27;0.40;;;0.40;;
7049;SDS011;22263;52.260;10.548;2024-02-16T06:10:00;0.30;;;0.30;;
7049;SDS011;22263;52.260;10.548;2024-02-16T06:12:36;0.40;;;0.40;;
7049;SDS011;22263;52.260;10.548;2024-02-16T06:15:07;0.50;;;0.50;;
7049;SDS011;22263;52.260;10.548;2024-02-16T06:17:38;0.32;;;0.32;;
7049;SDS011;22263;52.260;10.548;2024-02-16T06:20:09;0.40;;;0.40;;
7049;SDS011;22263;52.260;10.548;2024-02-16T06:22:42;0.40;;;0.40;;
7049;SDS011;22263;52.260;10.548;2024-02-16T06:25:15;0.20;;;0.20;;
7049;SDS011;22263;52.260;10.548;2024-02-16T06:27:45;0.40;;;0.40;;
7049;SDS011;22263;52.260;10.548;2024-02-16T06:30:17;0.40;;;0.40;;
7049;SDS011;22263;52.260;10.548;2024-02-16T06:32:47;0.40;;;0.40;;
7049;SDS011;22263;52.260;10.548;2024-02-16T06:35:18;0.30;;;0.30;;
7049;SDS011;22263;52.260;10.548;2024-02-16T06:37:48;0.38;;;0.38;;
7049;SDS011;22263;52.260;10.548;2024-02-16T06:40:20;0.50;;;0.50;;
7049;SDS011;22263;52.260;10.548;2024-02-16T06:42:53;0.40;;;0.40;;
7049;SDS011;22263;52.260;10.548;2024-02-16T06:45:23;0.38;;;0.38;;
7049;SDS011;22263;52.260;10.548;2024-02-16T06:47:53;0.40;;;0.40;;
7049;SDS011;22263;52.260;10.548;2024-02-16T06:50:23;0.40;;;0.40;;
7049;SDS011;22263;52.260;10.548;2024-02-16T06:52:53;0.50;;;0.50;;
7049;SDS011;22263;52.260;10.548;2024-02-16T06:55:26;0.40;;;0.40;;
7049;SDS011;22263;52.260;10.548;2024-02-16T06:57:56;0.30;;;0.30;;
7049;SDS011;22263;52.260;10.548;2024-02-16T07:00:26;0.40;;;0.40;;
7049;SDS011;22263;52.260;10.548;2024-02-16T07:02:56;0.45;;;0.45;;
7049;SDS011;22263;52.260;10.548;2024-02-16T07:05:27;0.30;;;0.30;;
7049;SDS011;22263;52.260;10.548;2024-02-16T07:08:01;0.40;;;0.40;;
7049;SDS011;22263;52.260;10.548;2024-02-16T07:10:36;0.40;;;0.40;;
7049;SDS011;22263;52.260;10.548;2024-02-16T07:13:06;0.40;;;0.40;;
7049;SDS011;22263;52.260;10.548;2024-02-16T07:15:36;0.35;;;0.35;;
7049;SDS011;22263;52.260;10.548;2024-02-16T07:18:07;0.40;;;0.40;;
7049;SDS011;22263;52.260;10.548;2024-02-16T07:20:37;0.30;;;0.30;;
7049;SDS011;22263;52.260;10.548;2024-02-16T07:23:07;0.30;;;0.30;;
7049;SDS011;22263;52.260;10.548;2024-02-16T07:25:41;0.30;;;0.30;;
7049;SDS011;22263;52.260;10.548;2024-02-16T07:28:12;0.40;;;0.40;;
7049;SDS011;22263;52.260;10.548;2024-02-16T07:30:42;0.40;;;0.40;;
7049;SDS011;22263;52.260;10.548;2024-02-16T07:33:12;0.40;;;0.40;;
7049;SDS011;22263;52.260;10.548;2024-02-16T07:35:43;0.40;;;0.40;;
7049;SDS011;22263;52.260;10.548;2024-02-16T07:38:13;0.40;;;0.40;;
7049;SDS011;22263;52.260;10.548;2024-02-16T07:40:46;0.35;;;0.35;;
7049;SDS011;22263;52.260;10.548;2024-02-16T07:43:17;0.40;;;0.40;;
7049;SDS011;22263;52.260;10.548;2024-02-16T07:45:48;0.47;;;0.47;;
7049;SDS011;22263;52.260;10.548;2024-02-16T07:48:20;0.30;;;0.30;;
7049;SDS011;22263;52.260;10.548;2024-02-16T07:50:51;0.30;;;0.30;;
7049;SDS011;22263;52.260;10.548;2024-02-16T07:53:24;0.40;;;0.40;;
7049;SDS011;22263;52.260;10.548;2024-02-16T07:55:57;0.30;;;0.30;;
7049;SDS011;22263;52.260;10.548;2024-02-16T07:58:28;0.40;;;0.40;;
7049;SDS011;22263;52.260;10.548;2024-02-16T08:00:58;0.30;;;0.30;;
7049;SDS011;22263;52.260;10.548;2024-02-16T08:03:29;0.30;;;0.30;;
7049;SDS011;22263;52.260;10.548;2024-02-16T08:06:00;0.30;;;0.30;;
7049;SDS011;22263;52.260;10.548;2024-02-16T08:08:32;0.40;;;0.40;;
7049;SDS011;22263;52.260;10.548;2024-02-16T08:11:04;0.30;;;0.30;;
7049;SDS011;22263;52.260;10.548;2024-02-16T08:13:34;0.35;;;0.35;;
7049;SDS011;22263;52.260;10.548;2024-02-16T08:16:04;0.40;;;0.40;;
7049;SDS011;22263;52.260;10.548;2024-02-16T08:18:34;0.40;;;0.40;;
7049;SDS011;22263;52.260;10.548;2024-02-16T08:21:05;0.30;;;0.30;;
7049;SDS011;22263;52.260;10.548;2024-02-16T08:23:35;0.30;;;0.30;;
7049;SDS011;22263;52.260;10.548;2024-02-16T08:26:07;0.30;;;0.30;;
7049;SDS011;22263;52.260;10.548;2024-02-16T08:28:38;0.30;;;0.30;;
7049;SDS011;22263;52.260;10.548;2024-02-16T08:31:08;0.30;;;0.30;;
7049;SDS011;22263;52.260;10.548;2024-02-16T08:33:38;0.30;;;0.30;;
7049;SDS011;22263;52.260;10.548;2024-02-16T08:36:10;0.30;;;0.30;;
7049;SDS011;22263;52.260;10.548;2024-02-16T08:38:40;0.30;;;0.30;;
7049;SDS011;22263;52.260;10.548;2024-02-16T08:41:13;0.30;;;0.30;;
7049;SDS011;22263;52.260;10.548;2024-02-16T08:43:44;0.30;;;0.30;;
7049;SDS011;22263;52.260;10.548;2024-02-16T08:46:13;0.30;;;0.30;;
7049;SDS011;22263;52.260;10.548;2024-02-16T08:48:44;0.30;;;0.30;;
7049;SDS011;22263;52.260;10.548;2024-02-16T08:51:14;0.30;;;0.30;;
7049;SDS011;22263;52.260;10.548;2024-02-16T08:53:44;0.30;;;0.30;;
7049;SDS011;22263;52.260;10.548;2024-02-16T08:56:17;0.30;;;0.30;;
7049;SDS011;22263;52.260;10.548;2024-02-16T08:58:47;0.40;;;0.40;;
7049;SDS011;22263;52.260;10.548;2024-02-16T09:01:17;0.30;;;0.30;;
7049;SDS011;22263;52.260;10.548;2024-02-16T09:03:47;0.30;;;0.30;;
7049;SDS011;22263;52.260;10.548;2024-02-16T09:06:17;0.30;;;0.30;;
7049;SDS011;22263;52.260;10.548;2024-02-16T09:08:48;0.30;;;0.30;;
7049;SDS011;22263;52.260;10.548;2024-02-16T09:11:21;0.30;;;0.30;;
7049;SDS011;22263;52.260;10.548;2024-02-16T09:13:51;0.30;;;0.30;;
7049;SDS011;22263;52.260;10.548;2024-02-16T09:16:21;0.28;;;0.28;;
7049;SDS011;22263;52.260;10.548;2024-02-16T09:18:51;0.30;;;0.30;;
7049;SDS011;22263;52.260;10.548;2024-02-16T09:21:22;0.30;;;0.30;;
7049;SDS011;22263;52.260;10.548;2024-02-16T09:23:55;0.30;;;0.30;;
7049;SDS011;22263;52.260;10.548;2024-02-16T09:26:31;0.20;;;0.20;;
7049;SDS011;22263;52.260;10.548;2024-02-16T09:29:01;0.20;;;0.20;;
7049;SDS011;22263;52.260;10.548;2024-02-16T09:31:32;0.30;;;0.30;;
7049;SDS011;22263;52.260;10.548;2024-02-16T09:34:02;0.30;;;0.30;;
7049;SDS011;22263;52.260;10.548;2024-02-16T09:36:32;0.30;;;0.30;;
7049;SDS011;22263;52.260;10.548;2024-02-16T09:39:04;0.30;;;0.30;;
7049;SDS011;22263;52.260;10.548;2024-02-16T09:41:37;0.30;;;0.30;;
7049;SDS011;22263;52.260;10.548;2024-02-16T09:44:11;0.30;;;0.30;;
7049;SDS011;22263;52.260;10.548;2024-02-16T09:46:41;0.30;;;0.30;;
7049;SDS011;22263;52.260;10.548;2024-02-16T09:49:11;0.30;;;0.30;;
7049;SDS011;22263;52.260;10.548;2024-02-16T09:51:42;0.30;;;0.30;;
7049;SDS011;22263;52.260;10.548;2024-02-16T09:54:12;0.30;;;0.30;;
7049;SDS011;22263;52.260;10.548;2024-02-16T09:56:45;0.30;;;0.30;;
7049;SDS011;22263;52.260;10.548;2024-02-16T09:59:15;0.30;;;0.30;;
7049;SDS011;22263;52.260;10.548;2024-02-16T10:01:45;0.22;;;0.22;;
7049;SDS011;22263;52.260;10.548;2024-02-16T10:04:15;0.20;;;0.20;;
7049;SDS011;22263;52.260;10.548;2024-02-16T10:06:45;0.30;;;0.30;;
7049;SDS011;22263;52.260;10.548;2024-02-16T10:09:23;0.30;;;0.30;;
7049;SDS011;22263;52.260;10.548;2024-02-16T10:11:58;0.30;;;0.30;;
7049;SDS011;22263;52.260;10.548;2024-02-16T10:14:28;0.20;;;0.20;;
7049;SDS011;22263;52.260;10.548;2024-02-16T10:16:59;0.30;;;0.30;;
7049;SDS011;22263;52.260;10.548;2024-02-16T10:19:30;0.30;;;0.30;;
7049;SDS011;22263;52.260;10.548;2024-02-16T10:22:09;0.30;;;0.30;;
7049;SDS011;22263;52.260;10.548;2024-02-16T10:24:40;0.20;;;0.20;;
7049;SDS011;22263;52.260;10.548;2024-02-16T10:27:16;0.32;;;0.32;;
7049;SDS011;22263;52.260;10.548;2024-02-16T10:29:47;0.30;;;0.30;;
7049;SDS011;22263;52.260;10.548;2024-02-16T10:32:19;0.30;;;0.30;;
7049;SDS011;22263;52.260;10.548;2024-02-16T10:34:50;0.30;;;0.30;;
7049;SDS011;22263;52.260;10.548;2024-02-16T10:37:23;0.25;;;0.25;;
7049;SDS011;22263;52.260;10.548;2024-02-16T10:39:54;0.30;;;0.30;;
7049;SDS011;22263;52.260;10.548;2024-02-16T10:42:28;0.20;;;0.20;;
7049;SDS011;22263;52.260;10.548;2024-02-16T10:45:00;0.30;;;0.30;;
7049;SDS011;22263;52.260;10.548;2024-02-16T10:47:31;0.20;;;0.20;;
7049;SDS011;22263;52.260;10.548;2024-02-16T10:50:01;0.25;;;0.25;;
7049;SDS011;22263;52.260;10.548;2024-02-16T10:52:32;0.20;;;0.20;;
7049;SDS011;22263;52.260;10.548;2024-02-16T10:55:04;0.20;;;0.20;;
7049;SDS011;22263;52.260;10.548;2024-02-16T10:57:38;0.20;;;0.20;;
7049;SDS011;22263;52.260;10.548;2024-02-16T11:00:09;0.30;;;0.30;;
7049;SDS011;22263;52.260;10.548;2024-02-16T11:02:51;0.22;;;0.22;;
7049;SDS011;22263;52.260;10.548;2024-02-16T11:08:13;0.30;;;0.30;;
7049;SDS011;22263;52.260;10.548;2024-02-16T11:10:54;0.20;;;0.20;;
7049;SDS011;22263;52.260;10.548;2024-02-16T11:13:28;0.30;;;0.30;;
7049;SDS011;22263;52.260;10.548;2024-02-16T11:16:03;0.30;;;0.30;;
7049;SDS011;22263;52.260;10.548;2024-02-16T11:18:39;0.30;;;0.30;;
7049;SDS011;22263;52.260;10.548;2024-02-16T11:21:14;0.30;;;0.30;;
7049;SDS011;22263;52.260;10.548;2024-02-16T11:23:44;0.20;;;0.20;;
7049;SDS011;22263;52.260;10.548;2024-02-16T11:26:16;0.30;;;0.30;;
7049;SDS011;22263;52.260;10.548;2024-02-16T11:28:49;0.20;;;0.20;;
7049;SDS011;22263;52.260;10.548;2024-02-16T11:31:20;0.22;;;0.22;;
7049;SDS011;22263;52.260;10.548;2024-02-16T11:33:52;0.20;;;0.20;;
7049;SDS011;22263;52.260;10.548;2024-02-16T11:36:22;0.30;;;0.30;;
7049;SDS011;22263;52.260;10.548;2024-02-16T11:38:53;0.25;;;0.25;;
7049;SDS011;22263;52.260;10.548;2024-02-16T11:41:23;0.20;;;0.20;;
7049;SDS011;22263;52.260;10.548;2024-02-16T11:44:01;0.20;;;0.20;;
7049;SDS011;22263;52.260;10.548;2024-02-16T11:46:31;0.20;;;0.20;;
7049;SDS011;22263;52.260;10.548;2024-02-16T11:49:05;0.20;;;0.20;;
7049;SDS011;22263;52.260;10.548;2024-02-16T11:51:37;0.30;;;0.30;;
7049;SDS011;22263;52.260;10.548;2024-02-16T11:54:07;0.30;;;0.30;;
7049;SDS011;22263;52.260;10.548;2024-02-16T11:56:39;0.20;;;0.20;;
7049;SDS011;22263;52.260;10.548;2024-02-16T11:59:14;0.30;;;0.30;;
7049;SDS011;22263;52.260;10.548;2024-02-16T12:01:48;0.30;;;0.30;;
7049;SDS011;22263;52.260;10.548;2024-02-16T12:04:20;0.30;;;0.30;;
7049;SDS011;22263;52.260;10.548;2024-02-16T12:06:51;0.30;;;0.30;;
7049;SDS011;22263;52.260;10.548;2024-02-16T12:09:25;0.30;;;0.30;;
7049;SDS011;22263;52.260;10.548;2024-02-16T12:11:57;0.30;;;0.30;;
7049;SDS011;22263;52.260;10.548;2024-02-16T12:14:29;0.20;;;0.20;;
7049;SDS011;22263;52.260;10.548;2024-02-16T12:17:00;0.20;;;0.20;;
7049;SDS011;22263;52.260;10.548;2024-02-16T12:19:30;0.28;;;0.28;;
7049;SDS011;22263;52.260;10.548;2024-02-16T12:22:00;0.30;;;0.30;;
7049;SDS011;22263;52.260;10.548;2024-02-16T12:24:30;0.30;;;0.30;;
7049;SDS011;22263;52.260;10.548;2024-02-16T12:27:00;0.30;;;0.30;;
7049;SDS011;22263;52.260;10.548;2024-02-16T12:29:33;0.30;;;0.30;;
7049;SDS011;22263;52.260;10.548;2024-02-16T12:32:03;0.20;;;0.20;;
7049;SDS011;22263;52.260;10.548;2024-02-16T12:34:34;0.20;;;0.20;;
7049;SDS011;22263;52.260;10.548;2024-02-16T12:37:05;0.30;;;0.30;;
7049;SDS011;22263;52.260;10.548;2024-02-16T12:39:38;0.30;;;0.30;;
7049;SDS011;22263;52.260;10.548;2024-02-16T12:42:08;0.30;;;0.30;;
7049;SDS011;22263;52.260;10.548;2024-02-16T12:44:42;0.20;;;0.20;;
7049;SDS011;22263;52.260;10.548;2024-02-16T12:47:12;0.22;;;0.22;;
7049;SDS011;22263;52.260;10.548;2024-02-16T12:49:42;0.30;;;0.30;;
7049;SDS011;22263;52.260;10.548;2024-02-16T12:52:19;0.30;;;0.30;;
7049;SDS011;22263;52.260;10.548;2024-02-16T12:54:52;0.30;;;0.30;;
7049;SDS011;22263;52.260;10.548;2024-02-16T12:57:23;0.20;;;0.20;;
7049;SDS011;22263;52.260;10.548;2024-02-16T12:59:55;0.30;;;0.30;;
7049;SDS011;22263;52.260;10.548;2024-02-16T13:02:26;0.30;;;0.30;;
7049;SDS011;22263;52.260;10.548;2024-02-16T13:04:56;0.40;;;0.40;;
7049;SDS011;22263;52.260;10.548;2024-02-16T13:07:26;0.30;;;0.30;;
7049;SDS011;22263;52.260;10.548;2024-02-16T13:09:57;0.30;;;0.30;;
7049;SDS011;22263;52.260;10.548;2024-02-16T13:12:27;0.30;;;0.30;;
7049;SDS011;22263;52.260;10.548;2024-02-16T13:15:00;0.30;;;0.30;;
7049;SDS011;22263;52.260;10.548;2024-02-16T13:17:48;0.30;;;0.30;;
7049;SDS011;22263;52.260;10.548;2024-02-16T13:20:18;0.30;;;0.30;;
7049;SDS011;22263;52.260;10.548;2024-02-16T13:22:48;0.30;;;0.30;;
7049;SDS011;22263;52.260;10.548;2024-02-16T13:25:19;0.30;;;0.30;;
7049;SDS011;22263;52.260;10.548;2024-02-16T13:27:49;0.25;;;0.25;;
7049;SDS011;22263;52.260;10.548;2024-02-16T13:30:22;0.30;;;0.30;;
7049;SDS011;22263;52.260;10.548;2024-02-16T13:32:54;0.30;;;0.30;;
7049;SDS011;22263;52.260;10.548;2024-02-16T13:35:24;0.30;;;0.30;;
7049;SDS011;22263;52.260;10.548;2024-02-16T13:37:55;0.30;;;0.30;;
7049;SDS011;22263;52.260;10.548;2024-02-16T13:40:25;0.30;;;0.30;;
7049;SDS011;22263;52.260;10.548;2024-02-16T13:42:59;0.30;;;0.30;;
7049;SDS011;22263;52.260;10.548;2024-02-16T13:45:47;0.35;;;0.35;;
7049;SDS011;22263;52.260;10.548;2024-02-16T13:48:19;0.28;;;0.28;;
7049;SDS011;22263;52.260;10.548;2024-02-16T13:50:50;0.30;;;0.30;;
7049;SDS011;22263;52.260;10.548;2024-02-16T13:53:22;0.30;;;0.30;;
7049;SDS011;22263;52.260;10.548;2024-02-16T13:55:52;0.30;;;0.30;;
7049;SDS011;22263;52.260;10.548;2024-02-16T13:58:22;0.20;;;0.20;;
7049;SDS011;22263;52.260;10.548;2024-02-16T14:00:54;0.30;;;0.30;;
7049;SDS011;22263;52.260;10.548;2024-02-16T14:03:25;0.22;;;0.22;;
7049;SDS011;22263;52.260;10.548;2024-02-16T14:05:55;0.30;;;0.30;;
7049;SDS011;22263;52.260;10.548;2024-02-16T14:08:26;0.30;;;0.30;;
7049;SDS011;22263;52.260;10.548;2024-02-16T14:10:57;0.30;;;0.30;;
7049;SDS011;22263;52.260;10.548;2024-02-16T14:13:27;0.30;;;0.30;;
7049;SDS011;22263;52.260;10.548;2024-02-16T14:15:59;0.30;;;0.30;;
7049;SDS011;22263;52.260;10.548;2024-02-16T14:18:30;0.25;;;0.25;;
7049;SDS011;22263;52.260;10.548;2024-02-16T14:21:02;0.30;;;0.30;;
7049;SDS011;22263;52.260;10.548;2024-02-16T14:23:32;0.30;;;0.30;;
7049;SDS011;22263;52.260;10.548;2024-02-16T14:26:02;0.30;;;0.30;;
7049;SDS011;22263;52.260;10.548;2024-02-16T14:28:33;0.30;;;0.30;;
7049;SDS011;22263;52.260;10.548;2024-02-16T14:31:07;0.30;;;0.30;;
7049;SDS011;22263;52.260;10.548;2024-02-16T14:33:44;0.30;;;0.30;;
7049;SDS011;22263;52.260;10.548;2024-02-16T14:36:14;0.28;;;0.28;;
7049;SDS011;22263;52.260;10.548;2024-02-16T14:38:44;0.30;;;0.30;;
7049;SDS011;22263;52.260;10.548;2024-02-16T14:41:18;0.30;;;0.30;;
7049;SDS011;22263;52.260;10.548;2024-02-16T14:43:49;0.30;;;0.30;;
7049;SDS011;22263;52.260;10.548;2024-02-16T14:46:24;0.30;;;0.30;;
7049;SDS011;22263;52.260;10.548;2024-02-16T14:48:55;0.30;;;0.30;;
7049;SDS011;22263;52.260;10.548;2024-02-16T14:51:25;0.30;;;0.30;;
7049;SDS011;22263;52.260;10.548;2024-02-16T14:53:56;0.30;;;0.30;;
7049;SDS011;22263;52.260;10.548;2024-02-16T14:56:26;0.30;;;0.30;;
7049;SDS011;22263;52.260;10.548;2024-02-16T14:58:56;0.30;;;0.30;;
7049;SDS011;22263;52.260;10.548;2024-02-16T15:01:29;0.30;;;0.30;;
7049;SDS011;22263;52.260;10.548;2024-02-16T15:03:59;0.30;;;0.30;;
7049;SDS011;22263;52.260;10.548;2024-02-16T15:06:29;0.30;;;0.30;;
7049;SDS011;22263;52.260;10.548;2024-02-16T15:09:00;0.30;;;0.30;;
7049;SDS011;22263;52.260;10.548;2024-02-16T15:11:31;0.30;;;0.30;;
7049;SDS011;22263;52.260;10.548;2024-02-16T15:14:01;0.30;;;0.30;;
7049;SDS011;22263;52.260;10.548;2024-02-16T15:16:34;0.30;;;0.30;;